Time;durP1;ratioP1;P1;durP2;ratioP2;P2;SDS_P1;SDS_P2;PMS_P1;PMS_P2;Temp;Humidity;BMP_temperature;BMP_pressure;BME280_temperature;BME280_humidity;BME280_pressure;Samples;Min_cycle;Max_cycle;Signal;HPM_P1;HPM_P2
2023/12/18 00:25:36;;;;;;;18.20;10.83;;;7.00;99.90;;;;;;5834611;24;20632;-84
2023/12/18 00:41:09;;;;;;;17.93;11.00;;;7.00;99.90;;;;;;6189152;23;20146;-86
2023/12/18 01:01:43;;;;;;;16.27;11.17;;;7.10;99.90;;;;;;6048812;23;20556;-87
2023/12/18 01:41:37;;;;;;;13.50;10.30;;;7.30;99.90;;;;;;6108767;23;20215;-91
2023/12/18 02:02:07;;;;;;;16.47;10.90;;;7.30;99.90;;;;;;5890222;24;20204;-86
2023/12/18 02:42:59;;;;;;;14.77;10.43;;;7.10;99.90;;;;;;6191864;23;20240;-83
2023/12/18 03:08:19;;;;;;;14.10;10.90;;;7.00;99.90;;;;;;6093715;23;20179;-85
2023/12/18 03:28:59;;;;;;;15.10;10.90;;;7.10;99.90;;;;;;6013328;23;20206;-85
2023/12/18 03:33:21;;;;;;;16.87;11.43;;;7.00;99.90;;;;;;5908777;24;20190;-86
2023/12/18 03:54:01;;;;;;;15.57;11.20;;;7.00;99.90;;;;;;5850582;24;20318;-85
2023/12/18 04:14:28;;;;;;;13.50;10.60;;;7.00;99.90;;;;;;6076402;23;20151;-87
2023/12/18 04:39:34;;;;;;;17.27;11.73;;;7.00;99.90;;;;;;5973744;24;20752;-84
2023/12/18 04:55:00;;;;;;;14.50;11.20;;;7.00;99.90;;;;;;5833711;24;20186;-85
2023/12/18 05:25:33;;;;;;;17.03;11.87;;;7.10;99.90;;;;;;6032508;23;20217;-83
2023/12/18 05:29:54;;;;;;;16.70;12.07;;;7.10;99.90;;;;;;5886703;24;20261;-84
2023/12/18 05:50:28;;;;;;;16.20;11.57;;;7.10;99.90;;;;;;6038336;23;20236;-84
2023/12/18 06:36:30;;;;;;;17.73;11.63;;;7.00;99.90;;;;;;5954596;23;20168;-86
2023/12/18 06:56:20;;;;;;;16.80;12.43;;;6.90;99.90;;;;;;5748569;24;20651;-86
2023/12/18 07:21:54;;;;;;;16.43;11.57;;;7.10;99.90;;;;;;5643973;24;21260;-87
2023/12/18 07:47:30;;;;;;;18.83;11.90;;;7.10;99.90;;;;;;5766731;24;20314;-84
2023/12/18 08:22:22;;;;;;;24.10;13.90;;;7.10;99.90;;;;;;5831022;24;20739;-85
2023/12/18 09:33:21;;;;;;;18.73;12.47;;;8.10;99.90;;;;;;5551249;25;20573;-85
2023/12/18 09:54:23;;;;;;;17.53;12.40;;;8.00;99.90;;;;;;5693676;24;20177;-84
2023/12/18 10:19:10;;;;;;;20.87;14.10;;;8.10;99.90;;;;;;5698662;25;20725;-87
2023/12/18 10:44:46;;;;;;;28.23;15.27;;;8.10;99.90;;;;;;5733523;24;20525;-85
2023/12/18 11:10:22;;;;;;;27.10;16.17;;;8.00;99.90;;;;;;5829547;24;20435;-84
2023/12/18 11:56:09;;;;;;;27.67;18.33;;;7.60;99.90;;;;;;5906241;24;20413;-84
2023/12/18 12:20:57;;;;;;;26.10;18.13;;;7.50;99.90;;;;;;5802491;24;20612;-84
2023/12/18 12:36:32;;;;;;;24.60;17.53;;;7.30;99.90;;;;;;5777316;24;20722;-83
2023/12/18 13:07:02;;;;;;;27.83;20.37;;;7.10;99.90;;;;;;5751403;24;20263;-82
2023/12/18 13:32:24;;;;;;;31.70;21.40;;;7.00;99.90;;;;;;5786496;24;20280;-87
2023/12/18 14:07:36;;;;;;;34.10;22.30;;;7.10;99.90;;;;;;5740785;24;20594;-82
2023/12/18 14:32:51;;;;;;;30.43;21.20;;;7.20;99.90;;;;;;5903807;23;20543;-82
2023/12/18 14:58:10;;;;;;;30.40;21.90;;;7.10;99.90;;;;;;6021099;23;20211;-85
2023/12/18 15:24:17;;;;;;;30.63;21.13;;;7.10;99.90;;;;;;5962751;23;20169;-82
2023/12/18 15:28:37;;;;;;;30.93;21.73;;;7.10;99.90;;;;;;5917818;23;20497;-85
2023/12/18 15:49:30;;;;;;;30.27;21.67;;;7.10;99.90;;;;;;5894599;24;20163;-84
2023/12/18 16:19:24;;;;;;;32.10;21.87;;;7.10;99.90;;;;;;6117376;23;20251;-86
2023/12/18 16:35:21;;;;;;;33.27;22.97;;;7.10;99.90;;;;;;6044876;23;20360;-84
2023/12/18 16:55:29;;;;;;;35.00;24.10;;;7.10;99.90;;;;;;5891546;24;20256;-82
2023/12/18 17:25:26;;;;;;;35.50;23.80;;;7.10;99.90;;;;;;5812186;24;20661;-84
2023/12/18 17:45:57;;;;;;;37.70;23.60;;;7.10;99.90;;;;;;5901814;24;20167;-87
2023/12/18 18:06:24;;;;;;;37.73;25.63;;;7.20;99.90;;;;;;5886051;24;20232;-83
2023/12/18 18:36:59;;;;;;;41.73;27.57;;;7.10;99.90;;;;;;6104359;23;20232;-85
2023/12/18 19:02:25;;;;;;;39.27;25.77;;;7.10;99.90;;;;;;5986095;23;20728;-85
2023/12/18 19:27:38;;;;;;;37.77;24.00;;;7.00;99.90;;;;;;6002837;23;20166;-85
2023/12/18 19:48:08;;;;;;;41.07;26.60;;;7.10;99.90;;;;;;5802331;24;20654;-86
2023/12/18 21:09:22;;;;;;;37.63;24.47;;;6.70;99.90;;;;;;6088814;23;20214;-83
2023/12/18 21:49:54;;;;;;;41.80;24.37;;;6.50;99.90;;;;;;6057222;23;21014;-83
2023/12/18 22:14:59;;;;;;;41.57;25.63;;;6.70;99.90;;;;;;5939963;24;20483;-86
2023/12/18 22:30:33;;;;;;;43.93;26.27;;;6.70;99.90;;;;;;5746095;24;20310;-82
2023/12/18 22:50:53;;;;;;;50.63;29.37;;;6.70;99.90;;;;;;5838766;24;20204;-84
2023/12/18 23:15:35;;;;;;;51.70;30.90;;;6.60;99.90;;;;;;5883429;24;20415;-81
2023/12/18 23:41:36;;;;;;;39.90;25.57;;;6.70;99.90;;;;;;5853391;24;20260;-84
